Terminal Aerodrome Forecast
Issued by NWS

Home | Current Version | Previous Version | Text Only | Print | Product List | Glossary On
Versions: 1 2 3 4 5 6 7 8 9 10 11 12 13 14 15 16 17 18 19 20 21 22 23 24 25 26 27 28 29 30 31 32 33 34 35 36 37 38 39 40 41 42 43 44 45 46 47 48 49 50
000
FTUS44 KHGX 240805 AAA
TAFIAH
TAF AMD
KIAH 240805Z 2408/2512 17008G18KT P6SM VCSH BKN015 OVC040
      TEMPO 2409/2413 VRB15G25KT 2SM +TSRA BKN015CB BKN025
     FM241300 17009KT P6SM VCSH SCT015 BKN035 BKN250
     FM241600 18010KT P6SM SCT035 BKN050
     FM241900 17010KT P6SM SCT045 BKN150
     FM250200 15009KT P6SM SCT025
     FM250700 16007KT P6SM BKN025=

USA.gov is the U.S. government's official web portal to all federal, state and local government web resources and services.